LFPM 201800Z AUTO 07006KT 030V100 CAVOK 18/M00 Q1019

Les locaux du Club
   
  L'Entrée du club Batiment 50  
   
  L'accueil et la zone opérations  
   
  La zone opérations  
   
  La zone Briefing  
   
  Le Club House  
   
  La parking avions et le hangard